sensor_id;sensor_type;location;lat;lon;timestamp;P1;durP1;ratioP1;P2;durP2;ratioP2
13693;SDS011;6919;52.344;14.518;2024-02-15T00:01:13;6.07;;;4.10;;
13693;SDS011;6919;52.344;14.518;2024-02-15T00:03:41;7.30;;;4.10;;
13693;SDS011;6919;52.344;14.518;2024-02-15T00:06:09;5.77;;;4.20;;
13693;SDS011;6919;52.344;14.518;2024-02-15T00:08:38;5.90;;;4.03;;
13693;SDS011;6919;52.344;14.518;2024-02-15T00:11:07;4.67;;;3.90;;
13693;SDS011;6919;52.344;14.518;2024-02-15T00:13:36;7.43;;;4.07;;
13693;SDS011;6919;52.344;14.518;2024-02-15T00:16:04;7.63;;;4.73;;
13693;SDS011;6919;52.344;14.518;2024-02-15T00:18:33;10.23;;;4.93;;
13693;SDS011;6919;52.344;14.518;2024-02-15T00:21:01;6.80;;;4.47;;
13693;SDS011;6919;52.344;14.518;2024-02-15T00:23:31;7.57;;;4.20;;
13693;SDS011;6919;52.344;14.518;2024-02-15T00:25:59;9.63;;;4.70;;
13693;SDS011;6919;52.344;14.518;2024-02-15T00:28:29;6.33;;;5.03;;
13693;SDS011;6919;52.344;14.518;2024-02-15T00:30:57;6.83;;;4.93;;
13693;SDS011;6919;52.344;14.518;2024-02-15T00:33:25;5.03;;;4.37;;
13693;SDS011;6919;52.344;14.518;2024-02-15T00:35:54;5.80;;;3.90;;
13693;SDS011;6919;52.344;14.518;2024-02-15T00:38:23;6.27;;;4.67;;
13693;SDS011;6919;52.344;14.518;2024-02-15T00:40:52;7.50;;;4.83;;
13693;SDS011;6919;52.344;14.518;2024-02-15T00:43:20;5.00;;;4.13;;
13693;SDS011;6919;52.344;14.518;2024-02-15T00:45:50;8.83;;;4.97;;
13693;SDS011;6919;52.344;14.518;2024-02-15T00:48:18;8.10;;;4.60;;
13693;SDS011;6919;52.344;14.518;2024-02-15T00:50:47;5.97;;;4.30;;
13693;SDS011;6919;52.344;14.518;2024-02-15T00:53:15;5.97;;;4.73;;
13693;SDS011;6919;52.344;14.518;2024-02-15T00:55:44;7.47;;;4.60;;
13693;SDS011;6919;52.344;14.518;2024-02-15T00:58:12;6.43;;;4.57;;
13693;SDS011;6919;52.344;14.518;2024-02-15T01:00:41;6.67;;;4.57;;
13693;SDS011;6919;52.344;14.518;2024-02-15T01:03:10;6.33;;;4.90;;
13693;SDS011;6919;52.344;14.518;2024-02-15T01:05:39;6.97;;;4.67;;
13693;SDS011;6919;52.344;14.518;2024-02-15T01:08:08;5.63;;;4.23;;
13693;SDS011;6919;52.344;14.518;2024-02-15T01:10:37;5.27;;;4.67;;
13693;SDS011;6919;52.344;14.518;2024-02-15T01:13:06;5.27;;;4.37;;
13693;SDS011;6919;52.344;14.518;2024-02-15T01:15:35;6.37;;;4.40;;
13693;SDS011;6919;52.344;14.518;2024-02-15T01:18:03;7.63;;;4.40;;
13693;SDS011;6919;52.344;14.518;2024-02-15T01:20:33;5.00;;;4.47;;
13693;SDS011;6919;52.344;14.518;2024-02-15T01:23:02;7.83;;;4.53;;
13693;SDS011;6919;52.344;14.518;2024-02-15T01:25:31;4.90;;;4.27;;
13693;SDS011;6919;52.344;14.518;2024-02-15T01:27:59;5.90;;;4.73;;
13693;SDS011;6919;52.344;14.518;2024-02-15T01:30:29;6.57;;;4.77;;
13693;SDS011;6919;52.344;14.518;2024-02-15T01:32:58;5.47;;;4.70;;
13693;SDS011;6919;52.344;14.518;2024-02-15T01:35:27;5.27;;;4.50;;
13693;SDS011;6919;52.344;14.518;2024-02-15T01:37:56;6.33;;;4.83;;
13693;SDS011;6919;52.344;14.518;2024-02-15T01:40:25;7.43;;;4.70;;
13693;SDS011;6919;52.344;14.518;2024-02-15T01:42:53;6.30;;;4.70;;
13693;SDS011;6919;52.344;14.518;2024-02-15T01:45:22;5.70;;;4.77;;
13693;SDS011;6919;52.344;14.518;2024-02-15T01:47:51;5.80;;;4.70;;
13693;SDS011;6919;52.344;14.518;2024-02-15T01:50:21;6.77;;;4.67;;
13693;SDS011;6919;52.344;14.518;2024-02-15T01:52:51;8.23;;;4.70;;
13693;SDS011;6919;52.344;14.518;2024-02-15T01:55:25;9.37;;;4.50;;
13693;SDS011;6919;52.344;14.518;2024-02-15T01:57:53;6.20;;;4.70;;
13693;SDS011;6919;52.344;14.518;2024-02-15T02:00:22;5.17;;;4.03;;
13693;SDS011;6919;52.344;14.518;2024-02-15T02:02:51;13.90;;;4.53;;
13693;SDS011;6919;52.344;14.518;2024-02-15T02:05:26;5.63;;;4.17;;
13693;SDS011;6919;52.344;14.518;2024-02-15T02:07:56;5.70;;;4.77;;
13693;SDS011;6919;52.344;14.518;2024-02-15T02:10:27;5.83;;;4.53;;
13693;SDS011;6919;52.344;14.518;2024-02-15T02:12:59;9.47;;;4.27;;
13693;SDS011;6919;52.344;14.518;2024-02-15T02:15:29;6.50;;;4.70;;
13693;SDS011;6919;52.344;14.518;2024-02-15T02:17:58;6.53;;;5.20;;
13693;SDS011;6919;52.344;14.518;2024-02-15T02:20:28;8.10;;;4.70;;
13693;SDS011;6919;52.344;14.518;2024-02-15T02:22:58;7.93;;;4.60;;
13693;SDS011;6919;52.344;14.518;2024-02-15T02:25:35;6.27;;;4.27;;
13693;SDS011;6919;52.344;14.518;2024-02-15T02:28:04;7.67;;;4.30;;
13693;SDS011;6919;52.344;14.518;2024-02-15T02:30:35;8.40;;;4.53;;
13693;SDS011;6919;52.344;14.518;2024-02-15T02:33:10;6.63;;;4.70;;
13693;SDS011;6919;52.344;14.518;2024-02-15T02:35:46;7.20;;;4.63;;
13693;SDS011;6919;52.344;14.518;2024-02-15T02:38:15;7.83;;;4.67;;
13693;SDS011;6919;52.344;14.518;2024-02-15T02:40:45;9.97;;;5.30;;
13693;SDS011;6919;52.344;14.518;2024-02-15T02:43:13;4.33;;;3.93;;
13693;SDS011;6919;52.344;14.518;2024-02-15T02:45:42;6.13;;;4.40;;
13693;SDS011;6919;52.344;14.518;2024-02-15T02:48:12;4.63;;;4.23;;
13693;SDS011;6919;52.344;14.518;2024-02-15T02:50:41;9.97;;;4.50;;
13693;SDS011;6919;52.344;14.518;2024-02-15T02:53:09;7.10;;;4.67;;
13693;SDS011;6919;52.344;14.518;2024-02-15T02:55:40;7.47;;;4.47;;
13693;SDS011;6919;52.344;14.518;2024-02-15T02:58:10;7.07;;;4.63;;
13693;SDS011;6919;52.344;14.518;2024-02-15T03:00:39;5.87;;;4.80;;
13693;SDS011;6919;52.344;14.518;2024-02-15T03:03:09;6.07;;;4.30;;
13693;SDS011;6919;52.344;14.518;2024-02-15T03:05:37;7.03;;;4.80;;
13693;SDS011;6919;52.344;14.518;2024-02-15T03:08:08;5.70;;;4.23;;
13693;SDS011;6919;52.344;14.518;2024-02-15T03:10:37;8.07;;;5.10;;
13693;SDS011;6919;52.344;14.518;2024-02-15T03:13:07;10.13;;;4.63;;
13693;SDS011;6919;52.344;14.518;2024-02-15T03:15:36;5.53;;;4.90;;
13693;SDS011;6919;52.344;14.518;2024-02-15T03:18:08;7.07;;;4.90;;
13693;SDS011;6919;52.344;14.518;2024-02-15T03:20:37;8.83;;;5.20;;
13693;SDS011;6919;52.344;14.518;2024-02-15T03:23:05;7.20;;;4.87;;
13693;SDS011;6919;52.344;14.518;2024-02-15T03:25:34;8.97;;;4.73;;
13693;SDS011;6919;52.344;14.518;2024-02-15T03:28:03;6.73;;;5.23;;
13693;SDS011;6919;52.344;14.518;2024-02-15T03:30:32;12.07;;;5.83;;
13693;SDS011;6919;52.344;14.518;2024-02-15T03:33:03;6.23;;;4.93;;
13693;SDS011;6919;52.344;14.518;2024-02-15T03:35:33;8.33;;;5.77;;
13693;SDS011;6919;52.344;14.518;2024-02-15T03:38:02;7.87;;;5.33;;
13693;SDS011;6919;52.344;14.518;2024-02-15T03:40:30;8.90;;;5.83;;
13693;SDS011;6919;52.344;14.518;2024-02-15T03:43:00;10.00;;;6.20;;
13693;SDS011;6919;52.344;14.518;2024-02-15T03:45:33;6.67;;;5.43;;
13693;SDS011;6919;52.344;14.518;2024-02-15T03:48:06;10.93;;;6.70;;
13693;SDS011;6919;52.344;14.518;2024-02-15T03:50:35;11.33;;;6.37;;
13693;SDS011;6919;52.344;14.518;2024-02-15T03:53:05;9.20;;;6.83;;
13693;SDS011;6919;52.344;14.518;2024-02-15T03:55:37;8.50;;;6.57;;
13693;SDS011;6919;52.344;14.518;2024-02-15T03:58:05;9.83;;;7.00;;
13693;SDS011;6919;52.344;14.518;2024-02-15T04:00:35;9.30;;;7.30;;
13693;SDS011;6919;52.344;14.518;2024-02-15T04:03:06;10.47;;;7.50;;
13693;SDS011;6919;52.344;14.518;2024-02-15T04:05:35;9.83;;;7.67;;
13693;SDS011;6919;52.344;14.518;2024-02-15T04:08:04;11.30;;;8.03;;
13693;SDS011;6919;52.344;14.518;2024-02-15T04:10:33;11.33;;;8.23;;
13693;SDS011;6919;52.344;14.518;2024-02-15T04:13:02;12.40;;;8.93;;
13693;SDS011;6919;52.344;14.518;2024-02-15T04:15:30;9.57;;;8.23;;
13693;SDS011;6919;52.344;14.518;2024-02-15T04:18:00;11.87;;;8.60;;
13693;SDS011;6919;52.344;14.518;2024-02-15T04:20:30;11.53;;;9.17;;
13693;SDS011;6919;52.344;14.518;2024-02-15T04:22:58;11.17;;;8.93;;
13693;SDS011;6919;52.344;14.518;2024-02-15T04:25:27;12.47;;;9.37;;
13693;SDS011;6919;52.344;14.518;2024-02-15T04:27:55;14.73;;;10.23;;
13693;SDS011;6919;52.344;14.518;2024-02-15T04:30:30;14.17;;;9.83;;
13693;SDS011;6919;52.344;14.518;2024-02-15T04:32:59;12.67;;;9.73;;
13693;SDS011;6919;52.344;14.518;2024-02-15T04:35:27;13.73;;;9.90;;
13693;SDS011;6919;52.344;14.518;2024-02-15T04:37:57;12.33;;;9.97;;
13693;SDS011;6919;52.344;14.518;2024-02-15T04:40:27;15.03;;;10.60;;
13693;SDS011;6919;52.344;14.518;2024-02-15T04:42:55;14.93;;;10.33;;
13693;SDS011;6919;52.344;14.518;2024-02-15T04:45:24;16.33;;;10.50;;
13693;SDS011;6919;52.344;14.518;2024-02-15T04:47:53;14.67;;;10.30;;
13693;SDS011;6919;52.344;14.518;2024-02-15T04:50:24;16.03;;;10.87;;
13693;SDS011;6919;52.344;14.518;2024-02-15T04:52:54;15.37;;;12.03;;
13693;SDS011;6919;52.344;14.518;2024-02-15T04:55:22;13.97;;;10.17;;
13693;SDS011;6919;52.344;14.518;2024-02-15T04:57:52;18.30;;;11.47;;
13693;SDS011;6919;52.344;14.518;2024-02-15T05:00:22;15.30;;;11.43;;
13693;SDS011;6919;52.344;14.518;2024-02-15T05:02:52;18.57;;;11.33;;
13693;SDS011;6919;52.344;14.518;2024-02-15T05:05:20;15.73;;;11.17;;
13693;SDS011;6919;52.344;14.518;2024-02-15T05:07:51;17.27;;;11.23;;
13693;SDS011;6919;52.344;14.518;2024-02-15T05:10:21;16.57;;;10.90;;
13693;SDS011;6919;52.344;14.518;2024-02-15T05:12:50;15.17;;;10.83;;
13693;SDS011;6919;52.344;14.518;2024-02-15T05:15:20;18.87;;;11.70;;
13693;SDS011;6919;52.344;14.518;2024-02-15T05:17:51;17.37;;;11.83;;
13693;SDS011;6919;52.344;14.518;2024-02-15T05:20:20;18.60;;;12.20;;
13693;SDS011;6919;52.344;14.518;2024-02-15T05:22:53;15.57;;;11.93;;
13693;SDS011;6919;52.344;14.518;2024-02-15T05:25:23;18.00;;;12.50;;
13693;SDS011;6919;52.344;14.518;2024-02-15T05:27:53;17.10;;;12.17;;
13693;SDS011;6919;52.344;14.518;2024-02-15T05:30:23;24.47;;;12.43;;
13693;SDS011;6919;52.344;14.518;2024-02-15T05:32:52;17.13;;;12.17;;
13693;SDS011;6919;52.344;14.518;2024-02-15T05:35:22;17.47;;;12.73;;
13693;SDS011;6919;52.344;14.518;2024-02-15T05:37:51;20.23;;;12.77;;
13693;SDS011;6919;52.344;14.518;2024-02-15T05:40:20;24.33;;;13.40;;
13693;SDS011;6919;52.344;14.518;2024-02-15T05:42:54;20.73;;;11.97;;
13693;SDS011;6919;52.344;14.518;2024-02-15T05:45:28;19.93;;;13.20;;
13693;SDS011;6919;52.344;14.518;2024-02-15T05:48:04;20.13;;;12.90;;
13693;SDS011;6919;52.344;14.518;2024-02-15T05:50:35;18.00;;;13.07;;
13693;SDS011;6919;52.344;14.518;2024-02-15T05:53:04;22.33;;;13.97;;
13693;SDS011;6919;52.344;14.518;2024-02-15T05:55:35;19.17;;;13.47;;
13693;SDS011;6919;52.344;14.518;2024-02-15T05:58:07;19.40;;;13.33;;
13693;SDS011;6919;52.344;14.518;2024-02-15T06:00:37;18.87;;;12.63;;
13693;SDS011;6919;52.344;14.518;2024-02-15T06:03:07;19.87;;;13.37;;
13693;SDS011;6919;52.344;14.518;2024-02-15T06:05:37;23.07;;;12.97;;
13693;SDS011;6919;52.344;14.518;2024-02-15T06:08:06;17.70;;;11.73;;
13693;SDS011;6919;52.344;14.518;2024-02-15T06:10:37;17.83;;;12.97;;
13693;SDS011;6919;52.344;14.518;2024-02-15T06:13:05;14.97;;;11.20;;
13693;SDS011;6919;52.344;14.518;2024-02-15T06:15:36;16.23;;;11.50;;
13693;SDS011;6919;52.344;14.518;2024-02-15T06:18:04;13.83;;;10.30;;
13693;SDS011;6919;52.344;14.518;2024-02-15T06:20:36;15.60;;;10.87;;
13693;SDS011;6919;52.344;14.518;2024-02-15T06:23:06;13.40;;;10.67;;
13693;SDS011;6919;52.344;14.518;2024-02-15T06:25:37;13.53;;;10.00;;
13693;SDS011;6919;52.344;14.518;2024-02-15T06:28:05;16.40;;;10.33;;
13693;SDS011;6919;52.344;14.518;2024-02-15T06:30:46;13.10;;;9.30;;
13693;SDS011;6919;52.344;14.518;2024-02-15T06:33:31;12.93;;;9.10;;
13693;SDS011;6919;52.344;14.518;2024-02-15T06:36:18;10.57;;;8.63;;
13693;SDS011;6919;52.344;14.518;2024-02-15T06:39:04;11.90;;;8.80;;
13693;SDS011;6919;52.344;14.518;2024-02-15T06:41:51;9.80;;;8.23;;
13693;SDS011;6919;52.344;14.518;2024-02-15T06:44:19;11.70;;;9.73;;
13693;SDS011;6919;52.344;14.518;2024-02-15T06:46:50;13.33;;;9.27;;
13693;SDS011;6919;52.344;14.518;2024-02-15T06:49:18;14.37;;;9.63;;
13693;SDS011;6919;52.344;14.518;2024-02-15T06:51:48;12.53;;;9.47;;
13693;SDS011;6919;52.344;14.518;2024-02-15T06:54:17;12.27;;;9.77;;
13693;SDS011;6919;52.344;14.518;2024-02-15T06:56:45;15.13;;;9.87;;
13693;SDS011;6919;52.344;14.518;2024-02-15T06:59:15;15.70;;;11.57;;
13693;SDS011;6919;52.344;14.518;2024-02-15T07:01:44;15.37;;;11.00;;
13693;SDS011;6919;52.344;14.518;2024-02-15T07:04:13;17.17;;;10.93;;
13693;SDS011;6919;52.344;14.518;2024-02-15T07:06:41;18.40;;;11.83;;
13693;SDS011;6919;52.344;14.518;2024-02-15T07:09:12;15.37;;;11.93;;
13693;SDS011;6919;52.344;14.518;2024-02-15T07:11:44;14.40;;;11.17;;
13693;SDS011;6919;52.344;14.518;2024-02-15T07:14:18;17.73;;;11.70;;
13693;SDS011;6919;52.344;14.518;2024-02-15T07:16:47;14.67;;;11.37;;
13693;SDS011;6919;52.344;14.518;2024-02-15T07:19:17;17.47;;;12.43;;
13693;SDS011;6919;52.344;14.518;2024-02-15T07:21:47;17.43;;;11.87;;
13693;SDS011;6919;52.344;14.518;2024-02-15T07:24:15;16.77;;;12.13;;
13693;SDS011;6919;52.344;14.518;2024-02-15T07:26:43;18.70;;;12.57;;
13693;SDS011;6919;52.344;14.518;2024-02-15T07:29:12;18.73;;;12.17;;
13693;SDS011;6919;52.344;14.518;2024-02-15T07:31:43;18.03;;;11.23;;
13693;SDS011;6919;52.344;14.518;2024-02-15T07:34:12;17.63;;;12.47;;
13693;SDS011;6919;52.344;14.518;2024-02-15T07:36:42;19.43;;;11.63;;
13693;SDS011;6919;52.344;14.518;2024-02-15T07:39:11;15.03;;;11.77;;
13693;SDS011;6919;52.344;14.518;2024-02-15T07:41:50;15.63;;;10.97;;
13693;SDS011;6919;52.344;14.518;2024-02-15T07:44:18;15.77;;;11.53;;
13693;SDS011;6919;52.344;14.518;2024-02-15T07:46:48;15.87;;;11.50;;
13693;SDS011;6919;52.344;14.518;2024-02-15T07:49:16;16.43;;;11.97;;
13693;SDS011;6919;52.344;14.518;2024-02-15T07:51:45;16.47;;;11.80;;
13693;SDS011;6919;52.344;14.518;2024-02-15T07:54:19;16.07;;;11.83;;
13693;SDS011;6919;52.344;14.518;2024-02-15T07:56:48;16.97;;;11.83;;
13693;SDS011;6919;52.344;14.518;2024-02-15T07:59:18;17.60;;;11.80;;
13693;SDS011;6919;52.344;14.518;2024-02-15T08:01:48;18.33;;;12.20;;
13693;SDS011;6919;52.344;14.518;2024-02-15T08:04:17;17.13;;;11.57;;
13693;SDS011;6919;52.344;14.518;2024-02-15T08:06:47;16.57;;;12.37;;
13693;SDS011;6919;52.344;14.518;2024-02-15T08:09:17;17.07;;;12.87;;
13693;SDS011;6919;52.344;14.518;2024-02-15T08:11:48;16.73;;;12.47;;
13693;SDS011;6919;52.344;14.518;2024-02-15T08:14:17;18.00;;;13.70;;
13693;SDS011;6919;52.344;14.518;2024-02-15T08:16:48;18.50;;;13.50;;
13693;SDS011;6919;52.344;14.518;2024-02-15T08:19:16;17.30;;;13.13;;
13693;SDS011;6919;52.344;14.518;2024-02-15T08:21:45;16.90;;;12.70;;
13693;SDS011;6919;52.344;14.518;2024-02-15T08:24:16;15.27;;;10.90;;
13693;SDS011;6919;52.344;14.518;2024-02-15T08:26:45;18.23;;;13.67;;
13693;SDS011;6919;52.344;14.518;2024-02-15T08:29:16;17.40;;;13.37;;
13693;SDS011;6919;52.344;14.518;2024-02-15T08:31:45;16.50;;;13.40;;
13693;SDS011;6919;52.344;14.518;2024-02-15T08:34:16;15.60;;;13.00;;
13693;SDS011;6919;52.344;14.518;2024-02-15T08:36:46;16.10;;;13.40;;
13693;SDS011;6919;52.344;14.518;2024-02-15T08:39:15;18.33;;;14.50;;
13693;SDS011;6919;52.344;14.518;2024-02-15T08:41:44;19.27;;;14.47;;
13693;SDS011;6919;52.344;14.518;2024-02-15T08:44:12;18.67;;;13.50;;
13693;SDS011;6919;52.344;14.518;2024-02-15T08:46:42;18.50;;;14.63;;
13693;SDS011;6919;52.344;14.518;2024-02-15T08:49:10;20.97;;;15.10;;
13693;SDS011;6919;52.344;14.518;2024-02-15T08:51:41;19.33;;;15.30;;
13693;SDS011;6919;52.344;14.518;2024-02-15T08:54:10;20.77;;;15.57;;
13693;SDS011;6919;52.344;14.518;2024-02-15T08:56:38;17.83;;;13.87;;
13693;SDS011;6919;52.344;14.518;2024-02-15T08:59:06;18.93;;;15.07;;
13693;SDS011;6919;52.344;14.518;2024-02-15T09:01:34;20.27;;;15.50;;
13693;SDS011;6919;52.344;14.518;2024-02-15T09:04:03;18.30;;;14.43;;
13693;SDS011;6919;52.344;14.518;2024-02-15T09:06:32;18.07;;;13.47;;
13693;SDS011;6919;52.344;14.518;2024-02-15T09:09:02;18.23;;;14.37;;
13693;SDS011;6919;52.344;14.518;2024-02-15T09:11:30;18.17;;;14.53;;
13693;SDS011;6919;52.344;14.518;2024-02-15T09:14:00;22.67;;;15.30;;
13693;SDS011;6919;52.344;14.518;2024-02-15T09:16:29;17.37;;;13.87;;
13693;SDS011;6919;52.344;14.518;2024-02-15T09:18:57;18.30;;;15.57;;
13693;SDS011;6919;52.344;14.518;2024-02-15T09:21:27;20.00;;;14.30;;
13693;SDS011;6919;52.344;14.518;2024-02-15T09:23:56;19.97;;;15.67;;
13693;SDS011;6919;52.344;14.518;2024-02-15T09:26:25;19.07;;;15.70;;
13693;SDS011;6919;52.344;14.518;2024-02-15T09:28:54;21.77;;;15.50;;
13693;SDS011;6919;52.344;14.518;2024-02-15T09:31:23;17.83;;;14.70;;
13693;SDS011;6919;52.344;14.518;2024-02-15T09:33:52;23.90;;;15.60;;
13693;SDS011;6919;52.344;14.518;2024-02-15T09:36:21;19.67;;;15.17;;
13693;SDS011;6919;52.344;14.518;2024-02-15T09:38:49;21.07;;;16.03;;
13693;SDS011;6919;52.344;14.518;2024-02-15T09:41:17;21.67;;;16.17;;
13693;SDS011;6919;52.344;14.518;2024-02-15T09:43:47;17.57;;;14.70;;
13693;SDS011;6919;52.344;14.518;2024-02-15T09:46:15;19.53;;;15.97;;
13693;SDS011;6919;52.344;14.518;2024-02-15T09:48:43;22.13;;;16.27;;
13693;SDS011;6919;52.344;14.518;2024-02-15T09:51:25;22.77;;;17.90;;
13693;SDS011;6919;52.344;14.518;2024-02-15T09:53:54;23.87;;;19.53;;
13693;SDS011;6919;52.344;14.518;2024-02-15T09:56:25;34.40;;;27.07;;
13693;SDS011;6919;52.344;14.518;2024-02-15T09:58:56;61.60;;;42.63;;
13693;SDS011;6919;52.344;14.518;2024-02-15T10:01:27;50.20;;;37.30;;
13693;SDS011;6919;52.344;14.518;2024-02-15T10:03:59;30.27;;;24.27;;
13693;SDS011;6919;52.344;14.518;2024-02-15T10:06:34;27.03;;;23.13;;
13693;SDS011;6919;52.344;14.518;2024-02-15T10:11:57;205.73;;;115.57;;
13693;SDS011;6919;52.344;14.518;2024-02-15T10:14:29;371.70;;;157.17;;
13693;SDS011;6919;52.344;14.518;2024-02-15T10:16:57;233.80;;;95.70;;
13693;SDS011;6919;52.344;14.518;2024-02-15T10:19:37;191.83;;;77.60;;
13693;SDS011;6919;52.344;14.518;2024-02-15T10:22:06;159.97;;;69.60;;
13693;SDS011;6919;52.344;14.518;2024-02-15T10:24:36;87.60;;;39.67;;
13693;SDS011;6919;52.344;14.518;2024-02-15T10:27:06;85.03;;;36.07;;
13693;SDS011;6919;52.344;14.518;2024-02-15T10:29:38;252.07;;;88.93;;
13693;SDS011;6919;52.344;14.518;2024-02-15T10:32:07;133.70;;;49.87;;
13693;SDS011;6919;52.344;14.518;2024-02-15T10:34:39;127.40;;;45.67;;
13693;SDS011;6919;52.344;14.518;2024-02-15T10:37:12;256.83;;;88.87;;
13693;SDS011;6919;52.344;14.518;2024-02-15T10:39:43;186.33;;;70.73;;
13693;SDS011;6919;52.344;14.518;2024-02-15T10:42:10;237.43;;;87.57;;
13693;SDS011;6919;52.344;14.518;2024-02-15T10:44:43;200.30;;;80.27;;
13693;SDS011;6919;52.344;14.518;2024-02-15T10:47:13;69.30;;;32.77;;
13693;SDS011;6919;52.344;14.518;2024-02-15T10:49:42;107.90;;;45.53;;
13693;SDS011;6919;52.344;14.518;2024-02-15T10:52:14;100.23;;;42.37;;
13693;SDS011;6919;52.344;14.518;2024-02-15T10:54:46;94.73;;;38.27;;
13693;SDS011;6919;52.344;14.518;2024-02-15T10:57:20;97.63;;;43.57;;
13693;SDS011;6919;52.344;14.518;2024-02-15T10:59:54;64.57;;;28.53;;
13693;SDS011;6919;52.344;14.518;2024-02-15T11:02:28;62.17;;;29.73;;
13693;SDS011;6919;52.344;14.518;2024-02-15T11:05:02;101.53;;;48.00;;
13693;SDS011;6919;52.344;14.518;2024-02-15T11:07:36;106.47;;;50.30;;
13693;SDS011;6919;52.344;14.518;2024-02-15T11:10:06;117.33;;;51.37;;
13693;SDS011;6919;52.344;14.518;2024-02-15T11:12:37;110.33;;;48.70;;
13693;SDS011;6919;52.344;14.518;2024-02-15T11:15:23;119.10;;;50.27;;
13693;SDS011;6919;52.344;14.518;2024-02-15T11:18:11;93.30;;;44.57;;
13693;SDS011;6919;52.344;14.518;2024-02-15T11:20:46;54.83;;;29.90;;
13693;SDS011;6919;52.344;14.518;2024-02-15T11:23:25;56.83;;;29.83;;
13693;SDS011;6919;52.344;14.518;2024-02-15T11:26:04;42.20;;;24.40;;
13693;SDS011;6919;52.344;14.518;2024-02-15T11:28:36;41.40;;;24.80;;
13693;SDS011;6919;52.344;14.518;2024-02-15T11:31:09;43.67;;;25.90;;
13693;SDS011;6919;52.344;14.518;2024-02-15T11:43:46;58.30;;;27.33;;
13693;SDS011;6919;52.344;14.518;2024-02-15T11:46:23;27.10;;;19.07;;
13693;SDS011;6919;52.344;14.518;2024-02-15T11:48:57;32.83;;;21.73;;
13693;SDS011;6919;52.344;14.518;2024-02-15T11:51:28;18.67;;;13.70;;
13693;SDS011;6919;52.344;14.518;2024-02-15T11:54:01;18.77;;;13.30;;
13693;SDS011;6919;52.344;14.518;2024-02-15T11:56:55;13.27;;;11.43;;
13693;SDS011;6919;52.344;14.518;2024-02-15T11:59:40;12.60;;;11.17;;
13693;SDS011;6919;52.344;14.518;2024-02-15T12:02:44;14.43;;;12.03;;
13693;SDS011;6919;52.344;14.518;2024-02-15T12:05:30;13.90;;;10.80;;
13693;SDS011;6919;52.344;14.518;2024-02-15T12:08:12;12.20;;;10.67;;
13693;SDS011;6919;52.344;14.518;2024-02-15T12:10:58;14.43;;;11.03;;
13693;SDS011;6919;52.344;14.518;2024-02-15T12:13:49;11.93;;;10.07;;
13693;SDS011;6919;52.344;14.518;2024-02-15T12:16:35;10.63;;;9.17;;
13693;SDS011;6919;52.344;14.518;2024-02-15T12:19:22;10.80;;;8.53;;
13693;SDS011;6919;52.344;14.518;2024-02-15T12:21:51;9.70;;;8.27;;
13693;SDS011;6919;52.344;14.518;2024-02-15T12:24:22;10.33;;;8.33;;
13693;SDS011;6919;52.344;14.518;2024-02-15T12:26:59;10.17;;;8.70;;
13693;SDS011;6919;52.344;14.518;2024-02-15T12:29:29;16.83;;;10.47;;
13693;SDS011;6919;52.344;14.518;2024-02-15T12:31:58;20.00;;;14.27;;
13693;SDS011;6919;52.344;14.518;2024-02-15T12:34:28;20.47;;;14.17;;
13693;SDS011;6919;52.344;14.518;2024-02-15T12:37:05;38.30;;;22.13;;
13693;SDS011;6919;52.344;14.518;2024-02-15T12:39:36;35.93;;;21.70;;
13693;SDS011;6919;52.344;14.518;2024-02-15T12:42:06;39.40;;;22.70;;
13693;SDS011;6919;52.344;14.518;2024-02-15T12:44:36;55.33;;;30.97;;
13693;SDS011;6919;52.344;14.518;2024-02-15T12:47:04;35.33;;;22.23;;
13693;SDS011;6919;52.344;14.518;2024-02-15T12:49:34;19.77;;;14.50;;
13693;SDS011;6919;52.344;14.518;2024-02-15T12:55:13;21.73;;;15.70;;
13693;SDS011;6919;52.344;14.518;2024-02-15T12:57:44;38.43;;;23.00;;
13693;SDS011;6919;52.344;14.518;2024-02-15T13:00:17;32.70;;;20.90;;
13693;SDS011;6919;52.344;14.518;2024-02-15T13:02:48;22.70;;;14.10;;
13693;SDS011;6919;52.344;14.518;2024-02-15T13:05:20;27.73;;;19.53;;
13693;SDS011;6919;52.344;14.518;2024-02-15T13:07:50;25.83;;;17.43;;
13693;SDS011;6919;52.344;14.518;2024-02-15T13:10:21;12.40;;;10.37;;
13693;SDS011;6919;52.344;14.518;2024-02-15T13:12:51;14.97;;;10.20;;
13693;SDS011;6919;52.344;14.518;2024-02-15T13:15:22;8.50;;;7.50;;
13693;SDS011;6919;52.344;14.518;2024-02-15T13:17:58;8.27;;;6.87;;
13693;SDS011;6919;52.344;14.518;2024-02-15T13:20:32;9.07;;;7.37;;
13693;SDS011;6919;52.344;14.518;2024-02-15T13:23:04;13.67;;;7.23;;
13693;SDS011;6919;52.344;14.518;2024-02-15T13:25:41;6.27;;;5.67;;
13693;SDS011;6919;52.344;14.518;2024-02-15T13:28:12;8.83;;;6.37;;
13693;SDS011;6919;52.344;14.518;2024-02-15T13:30:41;6.33;;;5.17;;
13693;SDS011;6919;52.344;14.518;2024-02-15T13:33:13;6.23;;;5.40;;
13693;SDS011;6919;52.344;14.518;2024-02-15T13:35:45;8.07;;;6.17;;
13693;SDS011;6919;52.344;14.518;2024-02-15T13:38:14;6.50;;;4.30;;
13693;SDS011;6919;52.344;14.518;2024-02-15T13:40:50;12.47;;;9.63;;
13693;SDS011;6919;52.344;14.518;2024-02-15T13:43:21;12.07;;;7.67;;
13693;SDS011;6919;52.344;14.518;2024-02-15T13:45:50;7.27;;;5.67;;
13693;SDS011;6919;52.344;14.518;2024-02-15T13:48:19;5.37;;;4.37;;
13693;SDS011;6919;52.344;14.518;2024-02-15T13:50:52;4.13;;;3.73;;
13693;SDS011;6919;52.344;14.518;2024-02-15T13:53:20;6.00;;;3.70;;
13693;SDS011;6919;52.344;14.518;2024-02-15T13:55:51;6.43;;;3.93;;
13693;SDS011;6919;52.344;14.518;2024-02-15T13:58:22;3.53;;;2.90;;
13693;SDS011;6919;52.344;14.518;2024-02-15T14:00:50;5.80;;;3.37;;
13693;SDS011;6919;52.344;14.518;2024-02-15T14:03:19;3.93;;;3.33;;
13693;SDS011;6919;52.344;14.518;2024-02-15T14:05:49;3.87;;;3.00;;
13693;SDS011;6919;52.344;14.518;2024-02-15T14:08:19;3.80;;;2.87;;
13693;SDS011;6919;52.344;14.518;2024-02-15T14:10:49;4.07;;;3.33;;
13693;SDS011;6919;52.344;14.518;2024-02-15T14:13:17;5.43;;;2.93;;
13693;SDS011;6919;52.344;14.518;2024-02-15T14:15:49;3.73;;;3.13;;
13693;SDS011;6919;52.344;14.518;2024-02-15T14:18:18;3.80;;;3.00;;
13693;SDS011;6919;52.344;14.518;2024-02-15T14:20:47;4.93;;;2.50;;
13693;SDS011;6919;52.344;14.518;2024-02-15T14:23:18;3.33;;;2.80;;
13693;SDS011;6919;52.344;14.518;2024-02-15T14:25:47;3.30;;;2.23;;
13693;SDS011;6919;52.344;14.518;2024-02-15T14:28:16;2.77;;;2.30;;
13693;SDS011;6919;52.344;14.518;2024-02-15T14:30:45;3.03;;;2.00;;
13693;SDS011;6919;52.344;14.518;2024-02-15T14:33:30;2.23;;;2.03;;
13693;SDS011;6919;52.344;14.518;2024-02-15T14:36:01;3.43;;;2.37;;
13693;SDS011;6919;52.344;14.518;2024-02-15T14:38:33;2.77;;;2.33;;
13693;SDS011;6919;52.344;14.518;2024-02-15T14:41:01;6.90;;;2.67;;
13693;SDS011;6919;52.344;14.518;2024-02-15T14:43:34;3.27;;;2.00;;
13693;SDS011;6919;52.344;14.518;2024-02-15T14:46:02;3.93;;;2.23;;
13693;SDS011;6919;52.344;14.518;2024-02-15T14:48:34;2.30;;;1.80;;
13693;SDS011;6919;52.344;14.518;2024-02-15T14:51:03;2.67;;;2.00;;
13693;SDS011;6919;52.344;14.518;2024-02-15T14:53:32;2.30;;;2.03;;
13693;SDS011;6919;52.344;14.518;2024-02-15T14:56:01;2.63;;;2.10;;
13693;SDS011;6919;52.344;14.518;2024-02-15T14:58:31;2.07;;;1.83;;
13693;SDS011;6919;52.344;14.518;2024-02-15T15:01:00;2.73;;;1.83;;
13693;SDS011;6919;52.344;14.518;2024-02-15T15:03:35;2.47;;;1.70;;
13693;SDS011;6919;52.344;14.518;2024-02-15T15:06:06;5.20;;;2.20;;
13693;SDS011;6919;52.344;14.518;2024-02-15T15:08:55;3.03;;;1.80;;
13693;SDS011;6919;52.344;14.518;2024-02-15T15:11:42;2.13;;;1.77;;